Time;durP1;ratioP1;P1;durP2;ratioP2;P2;SDS_P1;SDS_P2;PMS_P1;PMS_P2;Temp;Humidity;BMP_temperature;BMP_pressure;BME280_temperature;BME280_humidity;BME280_pressure;Samples;Min_cycle;Max_cycle;Signal;HPM_P1;HPM_P2
2022/04/14 00:01:34;;;;;;;;;;;;;;;10.52;61.11;98558.11;1603588;85;22114;-85
2022/04/14 00:04:00;;;;;;;;;;;;;;;10.51;61.27;98562.97;1601364;87;21108;-84
2022/04/14 00:06:26;;;;;;;;;;;;;;;10.52;61.42;98560.72;1598269;89;24521;-83
2022/04/14 00:08:57;;;;;;;;;;;;;;;10.53;61.53;98558.48;1597598;89;20486;-84
2022/04/14 00:11:23;;;;;;;;;;;;;;;10.55;61.63;98561.81;1598628;89;24952;-85
2022/04/14 00:13:49;;;;;;;;;;;;;;;10.59;61.80;98554.95;1599366;89;22149;-85
2022/04/14 00:16:15;;;;;;;;;;;;;;;10.60;61.90;98563.64;1598632;89;27382;-84
2022/04/14 00:18:41;;;;;;;;;;;;;;;10.64;62.03;98559.87;1619212;88;24460;-83
2022/04/14 00:21:07;;;;;;;;;;;;;;;10.61;62.11;98558.31;1623437;88;20300;-83
2022/04/14 00:23:33;;;;;;;;;;;;;;;10.55;62.13;98561.34;1619470;88;20263;-83
2022/04/14 00:25:59;;;;;;;;;;;;;;;10.54;62.23;98561.44;1620289;88;22023;-83
2022/04/14 00:28:25;;;;;;;;;;;;;;;10.51;62.34;98562.97;1622742;87;25981;-87
2022/04/14 00:30:51;;;;;;;;;;;;;;;10.49;62.45;98556.52;1619985;88;24423;-84
2022/04/14 00:33:20;;;;;;;;;;;;;;;10.47;62.52;98553.19;1622382;88;20536;-82
2022/04/14 00:35:46;;;;;;;;;;;;;;;10.41;62.53;98553.59;1620568;88;25104;-84
2022/04/14 00:38:12;;;;;;;;;;;;;;;10.36;62.53;98553.07;1621999;88;22087;-87
2022/04/14 00:40:38;;;;;;;;;;;;;;;10.33;62.54;98550.64;1620446;88;26162;-87
2022/04/14 00:43:05;;;;;;;;;;;;;;;10.29;62.54;98550.02;1620774;88;20255;-83
2022/04/14 00:45:31;;;;;;;;;;;;;;;10.30;62.62;98554.78;1620885;88;20500;-83
2022/04/14 00:47:56;;;;;;;;;;;;;;;10.29;62.76;98556.56;1617812;88;20245;-85
2022/04/14 00:50:22;;;;;;;;;;;;;;;10.29;62.87;98555.25;1621238;88;20878;-87
2022/04/14 00:52:48;;;;;;;;;;;;;;;10.28;63.02;98547.03;1622025;88;21058;-84
2022/04/14 00:55:14;;;;;;;;;;;;;;;10.28;63.15;98552.73;1619951;87;20264;-86
2022/04/14 00:57:42;;;;;;;;;;;;;;;10.30;63.25;98551.70;1620164;88;20324;-83
2022/04/14 01:00:08;;;;;;;;;;;;;;;10.29;63.26;98553.11;1619309;88;25589;-83
2022/04/14 01:02:35;;;;;;;;;;;;;;;10.29;63.28;98551.80;1621589;86;22207;-85
2022/04/14 01:05:04;;;;;;;;;;;;;;;10.29;63.29;98545.26;1622009;88;26062;-83
2022/04/14 01:07:35;;;;;;;;;;;;;;;10.30;63.37;98549.55;1619905;88;24431;-83
2022/04/14 01:10:01;;;;;;;;;;;;;;;10.30;63.43;98554.78;1601196;88;20229;-83
2022/04/14 01:12:27;;;;;;;;;;;;;;;10.30;63.49;98552.17;1607138;89;25187;-84
2022/04/14 01:14:54;;;;;;;;;;;;;;;10.28;63.57;98554.88;1598501;89;21943;-83
2022/04/14 01:17:20;;;;;;;;;;;;;;;10.26;63.61;98554.13;1607885;89;26183;-83
2022/04/14 01:19:47;;;;;;;;;;;;;;;10.24;63.71;98553.42;1607827;89;21933;-83
2022/04/14 01:22:31;;;;;;;;;;;;;;;10.20;63.74;98553.23;1607843;89;20178;-85
2022/04/14 01:24:58;;;;;;;;;;;;;;;10.18;63.89;98552.52;1607912;89;25026;-84
2022/04/14 01:27:28;;;;;;;;;;;;;;;10.18;64.12;98542.52;1607902;87;22789;-87
2022/04/14 01:29:54;;;;;;;;;;;;;;;10.12;64.22;98546.34;1597700;89;26056;-87
2022/04/14 01:32:21;;;;;;;;;;;;;;;10.09;64.37;98549.98;1607652;88;24396;-85
2022/04/14 01:34:47;;;;;;;;;;;;;;;9.98;64.39;98554.27;1607473;89;20487;-86
2022/04/14 01:37:13;;;;;;;;;;;;;;;9.93;64.52;98549.31;1607239;89;20287;-85
2022/04/14 01:39:41;;;;;;;;;;;;;;;9.94;64.74;98551.00;1607874;89;21944;-85
2022/04/14 01:42:07;;;;;;;;;;;;;;;9.92;64.91;98544.22;1606128;89;26117;-85
2022/04/14 01:44:33;;;;;;;;;;;;;;;9.90;65.07;98550.00;1607789;89;24506;-85
2022/04/14 01:46:59;;;;;;;;;;;;;;;9.94;65.28;98548.84;1607717;87;20451;-83
2022/04/14 01:49:25;;;;;;;;;;;;;;;9.96;65.39;98550.91;1605428;89;25012;-85
2022/04/14 01:51:51;;;;;;;;;;;;;;;9.96;65.51;98544.38;1607667;89;22058;-87
2022/04/14 01:54:17;;;;;;;;;;;;;;;9.95;65.59;98547.92;1607704;89;26090;-82
2022/04/14 01:56:45;;;;;;;;;;;;;;;9.95;65.68;98549.22;1598791;89;20283;-85
2022/04/14 01:59:18;;;;;;;;;;;;;;;9.95;65.75;98551.84;1607926;89;20448;-85
2022/04/14 02:01:46;;;;;;;;;;;;;;;9.99;65.94;98553.30;1608183;86;25182;-86
2022/04/14 02:04:12;;;;;;;;;;;;;;;9.97;66.04;98548.20;1632410;87;22144;-86
2022/04/14 02:06:38;;;;;;;;;;;;;;;9.98;66.14;98547.23;1633154;87;21064;-83
2022/04/14 02:09:04;;;;;;;;;;;;;;;9.96;66.23;98540.45;1631958;87;20252;-82
2022/04/14 02:11:30;;;;;;;;;;;;;;;9.94;66.33;98537.93;1632921;87;20237;-86
2022/04/14 02:13:59;;;;;;;;;;;;;;;9.90;66.43;98535.16;1633069;87;20305;-87
2022/04/14 02:16:27;;;;;;;;;;;;;;;9.91;66.60;98538.14;1632011;87;21983;-84
2022/04/14 02:18:53;;;;;;;;;;;;;;;9.90;66.69;98540.84;1632020;87;26030;-83
2022/04/14 02:21:19;;;;;;;;;;;;;;;9.88;66.80;98536.18;1631515;87;24481;-83
2022/04/14 02:23:45;;;;;;;;;;;;;;;9.81;66.85;98534.92;1631707;87;20262;-83
2022/04/14 02:26:11;;;;;;;;;;;;;;;9.77;66.91;98526.89;1631910;87;24992;-86
2022/04/14 02:28:37;;;;;;;;;;;;;;;9.74;67.05;98527.94;1632750;87;22053;-83
2022/04/14 02:31:03;;;;;;;;;;;;;;;9.72;67.13;98527.19;1630907;87;25989;-83
2022/04/14 02:33:29;;;;;;;;;;;;;;;9.72;67.22;98531.11;1632252;87;20316;-84
2022/04/14 02:35:55;;;;;;;;;;;;;;;9.72;67.34;98531.58;1631559;87;20253;-83
2022/04/14 02:38:21;;;;;;;;;;;;;;;9.71;67.48;98529.43;1632615;87;20846;-82
2022/04/14 02:40:49;;;;;;;;;;;;;;;9.61;67.54;98529.20;1630850;87;22021;-82
2022/04/14 02:43:18;;;;;;;;;;;;;;;9.57;67.71;98521.19;1631109;87;26211;-84
2022/04/14 02:45:44;;;;;;;;;;;;;;;9.58;67.86;98525.48;1631701;87;24548;-84
2022/04/14 02:48:13;;;;;;;;;;;;;;;9.55;68.00;98526.97;1630699;87;20348;-82
2022/04/14 02:50:43;;;;;;;;;;;;;;;9.57;68.18;98523.80;1633626;87;24990;-87
2022/04/14 02:53:07;;;;;;;;;;;;;;;9.47;68.23;98524.50;1630836;87;21860;-86
2022/04/14 02:55:33;;;;;;;;;;;;;;;9.38;68.28;98529.01;1632445;87;21091;-82
2022/04/14 02:57:59;;;;;;;;;;;;;;;9.36;68.42;98534.78;1632484;87;21145;-83
2022/04/14 03:00:25;;;;;;;;;;;;;;;9.30;68.50;98529.95;1631926;87;20856;-87
2022/04/14 03:02:51;;;;;;;;;;;;;;;9.15;68.50;98528.68;1628067;87;25667;-83
2022/04/14 03:05:17;;;;;;;;;;;;;;;9.15;68.76;98528.68;1626396;87;22095;-85
2022/04/14 03:07:43;;;;;;;;;;;;;;;9.26;69.14;98528.01;1626466;88;25845;-84
2022/04/14 03:10:09;;;;;;;;;;;;;;;9.28;69.35;98526.58;1626605;88;24679;-87
2022/04/14 03:12:47;;;;;;;;;;;;;;;9.35;69.55;98529.19;1627103;88;20469;-87
2022/04/14 03:15:14;;;;;;;;;;;;;;;9.36;69.76;98522.56;1626544;88;24948;-85
2022/04/14 03:17:41;;;;;;;;;;;;;;;9.42;69.96;98521.34;1625969;88;21995;-87
2022/04/14 03:20:09;;;;;;;;;;;;;;;9.44;70.14;98516.84;1626801;88;25978;-85
2022/04/14 03:22:36;;;;;;;;;;;;;;;9.49;70.30;98516.91;1624607;88;25261;-83
2022/04/14 03:25:03;;;;;;;;;;;;;;;9.49;70.42;98507.77;1626201;88;20278;-82
2022/04/14 03:27:29;;;;;;;;;;;;;;;9.51;70.51;98512.91;1626347;88;25068;-82
2022/04/14 03:29:55;;;;;;;;;;;;;;;9.47;70.54;98512.27;1626132;88;20280;-85
2022/04/14 03:32:22;;;;;;;;;;;;;;;9.48;70.61;98511.34;1626102;88;25963;-84
2022/04/14 03:34:48;;;;;;;;;;;;;;;9.46;70.61;98511.06;1626392;88;24446;-86
2022/04/14 03:37:14;;;;;;;;;;;;;;;9.41;70.61;98508.74;1626529;88;20227;-82
2022/04/14 03:39:41;;;;;;;;;;;;;;;9.35;70.56;98504.38;1626348;88;25011;-85
2022/04/14 03:42:07;;;;;;;;;;;;;;;9.32;70.56;98513.26;1613008;88;21964;-83
2022/04/14 03:44:33;;;;;;;;;;;;;;;9.34;70.68;98514.45;1626228;88;26004;-82
2022/04/14 03:46:59;;;;;;;;;;;;;;;9.37;70.82;98515.58;1626865;88;20277;-83
2022/04/14 03:49:24;;;;;;;;;;;;;;;9.37;70.91;98515.11;1626580;88;20247;-85
2022/04/14 03:51:54;;;;;;;;;;;;;;;9.34;70.94;98514.45;1626513;88;20735;-86
2022/04/14 03:54:18;;;;;;;;;;;;;;;9.32;71.00;98518.48;1626237;87;21928;-83
2022/04/14 03:56:48;;;;;;;;;;;;;;;9.34;71.11;98518.36;1626364;88;25971;-82
2022/04/14 03:59:15;;;;;;;;;;;;;;;9.33;71.18;98516.22;1626163;88;24428;-83
2022/04/14 04:01:42;;;;;;;;;;;;;;;9.31;71.22;98516.80;1626808;88;20309;-82
2022/04/14 04:04:09;;;;;;;;;;;;;;;9.23;71.19;98516.43;1631567;88;24951;-83
2022/04/14 04:06:35;;;;;;;;;;;;;;;9.26;71.32;98518.02;1632879;88;22708;-83
2022/04/14 04:09:01;;;;;;;;;;;;;;;9.27;71.40;98515.79;1632941;88;26059;-83
2022/04/14 04:11:27;;;;;;;;;;;;;;;9.20;71.37;98521.86;1632756;88;20857;-83
2022/04/14 04:13:53;;;;;;;;;;;;;;;9.14;71.34;98518.32;1632818;88;20249;-83
2022/04/14 04:16:19;;;;;;;;;;;;;;;9.16;71.45;98517.77;1633367;88;24994;-82
2022/04/14 04:18:48;;;;;;;;;;;;;;;9.18;71.56;98521.11;1632643;88;21979;-86
2022/04/14 04:21:14;;;;;;;;;;;;;;;9.03;71.45;98528.13;1631579;88;25929;-83
2022/04/14 04:23:40;;;;;;;;;;;;;;;8.80;71.25;98529.55;1620717;87;20935;-86
2022/04/14 04:26:06;;;;;;;;;;;;;;;8.70;71.28;98531.50;1631287;88;20304;-82
2022/04/14 04:28:32;;;;;;;;;;;;;;;8.63;71.41;98532.33;1632705;88;25033;-83
2022/04/14 04:30:58;;;;;;;;;;;;;;;8.60;71.62;98540.36;1633091;88;20413;-87
2022/04/14 04:33:24;;;;;;;;;;;;;;;8.57;71.89;98537.91;1632986;88;20956;-84
2022/04/14 04:35:50;;;;;;;;;;;;;;;8.46;71.99;98541.62;1632367;88;24435;-83
2022/04/14 04:38:17;;;;;;;;;;;;;;;8.39;72.18;98546.39;1632448;88;20500;-83
2022/04/14 04:40:43;;;;;;;;;;;;;;;8.30;72.38;98549.52;1632648;88;25030;-82
2022/04/14 04:43:09;;;;;;;;;;;;;;;8.23;72.63;98546.05;1632434;88;21678;-86
2022/04/14 04:45:35;;;;;;;;;;;;;;;8.16;72.91;98549.93;1633244;88;26065;-83
2022/04/14 04:48:04;;;;;;;;;;;;;;;8.13;73.21;98548.82;1632882;87;24512;-83
2022/04/14 04:50:30;;;;;;;;;;;;;;;8.14;73.56;98555.69;1632859;88;20221;-83
2022/04/14 04:52:56;;;;;;;;;;;;;;;8.15;73.99;98547.78;1632969;88;25114;-83
2022/04/14 04:55:22;;;;;;;;;;;;;;;8.22;74.42;98552.19;1632917;88;22040;-86
2022/04/14 04:57:48;;;;;;;;;;;;;;;8.33;74.91;98547.21;1632749;88;26050;-82
2022/04/14 05:00:15;;;;;;;;;;;;;;;8.45;75.53;98546.95;1632675;88;20882;-82
2022/04/14 05:02:41;;;;;;;;;;;;;;;8.58;76.13;98547.42;1631594;87;20282;-83
2022/04/14 05:05:08;;;;;;;;;;;;;;;8.73;76.68;98549.56;1629222;87;24887;-83
2022/04/14 05:07:34;;;;;;;;;;;;;;;8.91;77.21;98551.53;1629674;87;21979;-83
2022/04/14 05:10:00;;;;;;;;;;;;;;;9.18;77.81;98551.97;1627690;87;26003;-83
2022/04/14 05:12:26;;;;;;;;;;;;;;;9.41;78.32;98554.45;1627144;87;20816;-84
2022/04/14 05:14:52;;;;;;;;;;;;;;;9.59;78.71;98551.98;1625996;87;20455;-84
2022/04/14 05:17:18;;;;;;;;;;;;;;;9.77;79.04;98549.10;1623078;87;25132;-86
2022/04/14 05:19:46;;;;;;;;;;;;;;;9.93;79.29;98543.25;1629075;87;20237;-87
2022/04/14 05:22:12;;;;;;;;;;;;;;;10.07;79.38;98547.96;1623201;87;26092;-87
2022/04/14 05:24:38;;;;;;;;;;;;;;;10.20;79.40;98548.00;1622412;87;20919;-82
2022/04/14 05:27:10;;;;;;;;;;;;;;;10.30;79.38;98545.16;1629438;87;20485;-83
2022/04/14 05:29:37;;;;;;;;;;;;;;;10.32;79.20;98543.73;1622678;87;25067;-84
2022/04/14 05:32:15;;;;;;;;;;;;;;;10.37;79.14;98546.41;1627358;87;23389;-86
2022/04/14 05:34:43;;;;;;;;;;;;;;;10.44;79.15;98546.84;1626738;87;26217;-82
2022/04/14 05:37:09;;;;;;;;;;;;;;;10.45;78.99;98551.14;1625734;87;24420;-82
2022/04/14 05:39:35;;;;;;;;;;;;;;;10.46;78.89;98548.89;1625027;87;20203;-87
2022/04/14 05:42:02;;;;;;;;;;;;;;;10.56;78.96;98544.70;1624178;87;20233;-84
2022/04/14 05:44:28;;;;;;;;;;;;;;;10.61;78.96;98546.53;1627016;87;22165;-87
2022/04/14 05:46:54;;;;;;;;;;;;;;;10.56;78.86;98543.87;1626471;87;21598;-83
2022/04/14 05:49:20;;;;;;;;;;;;;;;10.55;78.78;98543.02;1626958;87;24443;-87
2022/04/14 05:51:47;;;;;;;;;;;;;;;10.63;78.83;98539.43;1626466;87;20230;-83
2022/04/14 05:54:14;;;;;;;;;;;;;;;10.62;78.82;98542.14;1624238;87;25051;-86
2022/04/14 05:56:40;;;;;;;;;;;;;;;10.42;78.59;98542.16;1626872;87;22023;-86
2022/04/14 05:59:07;;;;;;;;;;;;;;;10.26;78.38;98542.83;1624498;87;26103;-84
2022/04/14 06:01:33;;;;;;;;;;;;;;;10.08;78.13;98542.27;1623342;87;25218;-87
2022/04/14 06:03:59;;;;;;;;;;;;;;;9.98;78.18;98545.13;1611373;87;20330;-83
2022/04/14 06:06:25;;;;;;;;;;;;;;;9.95;78.43;98541.38;1597967;88;20759;-83
2022/04/14 06:08:51;;;;;;;;;;;;;;;9.93;78.70;98546.70;1597588;89;22219;-82
2022/04/14 06:11:17;;;;;;;;;;;;;;;9.93;79.05;98545.86;1597411;89;20944;-82
2022/04/14 06:13:43;;;;;;;;;;;;;;;9.97;79.45;98544.75;1599136;88;24438;-82
2022/04/14 06:16:09;;;;;;;;;;;;;;;9.99;79.83;98553.30;1598853;89;20354;-84
2022/04/14 06:18:35;;;;;;;;;;;;;;;10.04;80.18;98545.53;1598403;89;20873;-84
2022/04/14 06:21:01;;;;;;;;;;;;;;;10.13;80.61;98545.41;1598970;89;20289;-83
2022/04/14 06:23:27;;;;;;;;;;;;;;;10.20;81.07;98545.38;1598752;89;26095;-83
2022/04/14 06:25:54;;;;;;;;;;;;;;;10.24;81.44;98539.50;1598486;89;24455;-83
2022/04/14 06:28:20;;;;;;;;;;;;;;;10.29;81.79;98543.95;1598769;89;20225;-83
2022/04/14 06:30:47;;;;;;;;;;;;;;;10.35;82.13;98544.85;1598410;89;25025;-83
2022/04/14 06:33:14;;;;;;;;;;;;;;;10.42;82.49;98540.39;1596660;88;21934;-83
2022/04/14 06:35:40;;;;;;;;;;;;;;;10.52;82.87;98539.33;1598504;89;26643;-82
2022/04/14 06:38:06;;;;;;;;;;;;;;;10.62;83.16;98540.84;1596865;89;24736;-87
2022/04/14 06:40:33;;;;;;;;;;;;;;;10.74;83.40;98539.53;1598489;88;20857;-83
2022/04/14 06:43:00;;;;;;;;;;;;;;;10.83;83.63;98532.81;1597106;89;24974;-86
2022/04/14 06:45:26;;;;;;;;;;;;;;;10.93;83.98;98528.61;1599233;89;21945;-83
2022/04/14 06:47:53;;;;;;;;;;;;;;;11.08;84.53;98530.15;1616129;88;21296;-82
2022/04/14 06:50:19;;;;;;;;;;;;;;;11.26;84.76;98524.92;1597980;88;24523;-83
2022/04/14 06:52:45;;;;;;;;;;;;;;;11.42;84.71;98538.23;1597960;88;20841;-83
2022/04/14 06:55:11;;;;;;;;;;;;;;;11.58;84.70;98525.70;1598117;88;25028;-86
2022/04/14 06:57:37;;;;;;;;;;;;;;;11.74;84.56;98531.54;1597450;88;20840;-86
2022/04/14 07:00:04;;;;;;;;;;;;;;;11.87;84.46;98532.33;1596736;88;20954;-86
2022/04/14 07:02:34;;;;;;;;;;;;;;;12.01;84.68;98541.31;1601946;89;20767;-86
2022/04/14 07:05:01;;;;;;;;;;;;;;;12.15;84.47;98535.89;1624885;87;20346;-86
2022/04/14 07:07:27;;;;;;;;;;;;;;;12.27;84.24;98531.52;1633970;87;20289;-83
2022/04/14 07:09:53;;;;;;;;;;;;;;;12.38;83.91;98528.89;1632831;87;22175;-82
2022/04/14 07:12:19;;;;;;;;;;;;;;;12.50;83.54;98527.97;1632072;87;26092;-83
2022/04/14 07:14:46;;;;;;;;;;;;;;;12.61;83.13;98533.72;1631377;87;24586;-84
2022/04/14 07:17:12;;;;;;;;;;;;;;;12.71;82.67;98530.73;1632021;87;20308;-83
2022/04/14 07:19:38;;;;;;;;;;;;;;;12.87;82.41;98533.85;1632395;87;25036;-83
2022/04/14 07:22:09;;;;;;;;;;;;;;;12.98;81.95;98529.11;1632926;87;22062;-83
2022/04/14 07:24:32;;;;;;;;;;;;;;;13.11;81.21;98528.96;1632462;86;26040;-83
2022/04/14 07:26:58;;;;;;;;;;;;;;;13.26;80.72;98529.09;1632265;87;24496;-84
2022/04/14 07:29:24;;;;;;;;;;;;;;;13.38;80.12;98525.02;1632661;87;20868;-86
2022/04/14 07:31:52;;;;;;;;;;;;;;;13.52;79.36;98521.30;1630865;87;20381;-84
2022/04/14 07:34:18;;;;;;;;;;;;;;;13.65;78.68;98526.39;1632156;87;22023;-86
2022/04/14 07:36:45;;;;;;;;;;;;;;;13.70;77.87;98523.74;1630982;87;26037;-86
2022/04/14 07:39:14;;;;;;;;;;;;;;;13.80;76.95;98527.80;1631754;87;24512;-83
2022/04/14 07:41:40;;;;;;;;;;;;;;;13.93;76.00;98520.55;1633086;87;20226;-84
2022/04/14 07:44:06;;;;;;;;;;;;;;;14.05;75.25;98520.87;1633300;87;20255;-87
2022/04/14 07:46:32;;;;;;;;;;;;;;;14.15;74.68;98527.03;1633606;87;21919;-87
2022/04/14 07:48:58;;;;;;;;;;;;;;;14.25;74.10;98535.00;1632003;87;26066;-87
2022/04/14 07:51:24;;;;;;;;;;;;;;;14.31;73.27;98535.81;1631898;87;20833;-84
2022/04/14 07:53:51;;;;;;;;;;;;;;;14.47;72.18;98535.38;1633357;86;20847;-83
2022/04/14 07:56:20;;;;;;;;;;;;;;;14.58;71.43;98536.16;1632551;87;24959;-87
2022/04/14 07:58:46;;;;;;;;;;;;;;;14.65;70.89;98535.16;1631642;87;22098;-83
2022/04/14 08:01:12;;;;;;;;;;;;;;;14.75;70.14;98536.05;1631349;87;26033;-83
2022/04/14 08:03:39;;;;;;;;;;;;;;;14.85;69.60;98535.61;1632788;87;20374;-83
2022/04/14 08:06:05;;;;;;;;;;;;;;;14.94;69.12;98536.16;1631344;88;20578;-83
2022/04/14 08:08:32;;;;;;;;;;;;;;;15.02;68.22;98533.68;1631754;88;24989;-84
2022/04/14 08:11:02;;;;;;;;;;;;;;;15.11;67.45;98535.98;1632743;88;20231;-84
2022/04/14 08:13:27;;;;;;;;;;;;;;;15.23;66.53;98537.56;1632810;87;27044;-84
2022/04/14 08:15:53;;;;;;;;;;;;;;;15.32;65.74;98542.54;1633249;88;24603;-84
2022/04/14 08:18:19;;;;;;;;;;;;;;;15.37;64.73;98533.25;1633270;88;20333;-83
2022/04/14 08:20:45;;;;;;;;;;;;;;;15.44;63.89;98535.69;1633553;88;20279;-87
2022/04/14 08:23:16;;;;;;;;;;;;;;;15.53;63.22;98543.31;1633403;88;21970;-86
2022/04/14 08:25:40;;;;;;;;;;;;;;;15.59;62.52;98532.71;1632201;87;26392;-83
2022/04/14 08:28:07;;;;;;;;;;;;;;;15.70;62.08;98529.47;1633124;88;24598;-83
2022/04/14 08:30:34;;;;;;;;;;;;;;;15.82;61.56;98528.83;1633351;88;20215;-83
2022/04/14 08:33:01;;;;;;;;;;;;;;;15.86;60.98;98528.93;1633413;88;25784;-83
2022/04/14 08:35:27;;;;;;;;;;;;;;;15.86;60.21;98524.97;1633499;88;22226;-87
2022/04/14 08:37:54;;;;;;;;;;;;;;;15.95;59.87;98535.17;1633238;88;26039;-84
2022/04/14 08:40:22;;;;;;;;;;;;;;;16.08;59.60;98533.94;1632845;88;24513;-82
2022/04/14 08:42:55;;;;;;;;;;;;;;;16.15;59.12;98535.03;1631704;88;20252;-87
2022/04/14 08:45:23;;;;;;;;;;;;;;;16.29;58.56;98531.14;1631788;87;25143;-84
2022/04/14 08:47:50;;;;;;;;;;;;;;;16.40;58.18;98523.55;1634507;86;22066;-85
2022/04/14 08:50:16;;;;;;;;;;;;;;;16.44;57.59;98522.29;1632606;87;26031;-85
2022/04/14 08:52:43;;;;;;;;;;;;;;;16.49;56.93;98521.38;1618177;88;24412;-85
2022/04/14 08:55:11;;;;;;;;;;;;;;;16.59;56.30;98519.09;1633425;88;20257;-83
2022/04/14 08:57:37;;;;;;;;;;;;;;;16.69;56.07;98518.56;1632818;88;25748;-86
2022/04/14 09:00:07;;;;;;;;;;;;;;;16.72;55.70;98515.66;1633438;88;21968;-87
2022/04/14 09:02:34;;;;;;;;;;;;;;;16.79;55.12;98517.73;1633204;88;26718;-87
2022/04/14 09:05:02;;;;;;;;;;;;;;;16.88;54.61;98516.86;1632695;88;24419;-83
2022/04/14 09:07:28;;;;;;;;;;;;;;;16.94;54.26;98518.92;1630827;87;20307;-87
2022/04/14 09:09:54;;;;;;;;;;;;;;;16.98;53.72;98517.16;1632681;88;25017;-85
2022/04/14 09:12:21;;;;;;;;;;;;;;;17.01;53.41;98516.05;1632690;88;22051;-87
2022/04/14 09:14:47;;;;;;;;;;;;;;;17.10;53.23;98506.75;1633296;88;26032;-85
2022/04/14 09:17:13;;;;;;;;;;;;;;;17.15;52.91;98508.46;1633052;88;24724;-83
2022/04/14 09:19:39;;;;;;;;;;;;;;;17.30;52.55;98507.95;1632995;88;20486;-83
2022/04/14 09:22:10;;;;;;;;;;;;;;;17.38;51.82;98509.39;1633120;88;25191;-85
2022/04/14 09:24:51;;;;;;;;;;;;;;;17.42;51.39;98504.14;1632485;88;22418;-83
2022/04/14 09:27:27;;;;;;;;;;;;;;;17.47;51.03;98504.52;1632023;87;26923;-85
2022/04/14 09:29:54;;;;;;;;;;;;;;;17.46;50.49;98497.07;1632181;88;24628;-85
2022/04/14 09:32:30;;;;;;;;;;;;;;;17.40;50.12;98498.98;1633174;88;20484;-86
2022/04/14 09:34:57;;;;;;;;;;;;;;;17.49;49.93;98492.83;1632642;87;25018;-87
2022/04/14 09:37:24;;;;;;;;;;;;;;;17.59;49.73;98495.40;1633014;88;21995;-87
2022/04/14 09:39:53;;;;;;;;;;;;;;;17.50;49.07;98490.52;1632905;88;26063;-84
2022/04/14 09:42:21;;;;;;;;;;;;;;;17.54;48.87;98485.27;1632801;87;24458;-84
2022/04/14 09:44:48;;;;;;;;;;;;;;;17.66;48.69;98487.73;1632623;87;20321;-85
2022/04/14 09:47:33;;;;;;;;;;;;;;;17.74;48.50;98480.69;1633228;88;24950;-88
2022/04/14 09:49:59;;;;;;;;;;;;;;;17.80;48.33;98478.77;1633024;88;22280;-88
2022/04/14 09:52:25;;;;;;;;;;;;;;;17.87;48.08;98474.53;1632533;88;26207;-83
2022/04/14 09:54:53;;;;;;;;;;;;;;;17.88;47.76;98473.56;1632552;88;24408;-83
2022/04/14 09:57:19;;;;;;;;;;;;;;;17.96;47.53;98474.94;1631530;87;20230;-84
2022/04/14 09:59:45;;;;;;;;;;;;;;;17.98;47.17;98468.17;1633030;88;25715;-85
2022/04/14 10:02:12;;;;;;;;;;;;;;;17.98;46.76;98467.69;1632827;88;22052;-85
2022/04/14 10:04:39;;;;;;;;;;;;;;;18.09;46.60;98467.94;1628582;87;26122;-84
2022/04/14 10:07:07;;;;;;;;;;;;;;;18.13;46.29;98467.96;1625990;87;24451;-85
2022/04/14 10:09:35;;;;;;;;;;;;;;;18.16;46.05;98461.53;1622325;87;20212;-83
2022/04/14 10:12:02;;;;;;;;;;;;;;;18.16;45.80;98466.84;1625071;87;25713;-84
2022/04/14 10:14:29;;;;;;;;;;;;;;;18.17;45.51;98460.52;1622246;87;22750;-83
2022/04/14 10:16:57;;;;;;;;;;;;;;;18.22;45.40;98460.92;1627555;87;25971;-83
2022/04/14 10:19:23;;;;;;;;;;;;;;;18.30;45.24;98458.31;1625677;87;25094;-86
2022/04/14 10:21:49;;;;;;;;;;;;;;;18.32;44.91;98454.54;1629855;87;20512;-84
2022/04/14 10:24:16;;;;;;;;;;;;;;;18.32;44.55;98448.41;1624534;87;24943;-83
2022/04/14 10:26:43;;;;;;;;;;;;;;;18.39;44.36;98442.31;1625710;87;21991;-82
2022/04/14 10:29:12;;;;;;;;;;;;;;;18.42;44.10;98441.67;1624162;87;25981;-87
2022/04/14 10:31:38;;;;;;;;;;;;;;;18.48;43.96;98445.86;1623721;87;24438;-86
2022/04/14 10:34:07;;;;;;;;;;;;;;;18.61;43.99;98431.70;1623820;87;20487;-84
2022/04/14 10:36:38;;;;;;;;;;;;;;;18.79;43.81;98435.61;1624257;87;25056;-82
2022/04/14 10:39:05;;;;;;;;;;;;;;;18.86;43.66;98438.47;1624063;87;22077;-83
2022/04/14 10:41:33;;;;;;;;;;;;;;;18.87;43.54;98435.66;1623434;87;26188;-86
2022/04/14 10:44:00;;;;;;;;;;;;;;;18.96;43.48;98429.39;1626200;87;25159;-84
2022/04/14 10:46:32;;;;;;;;;;;;;;;19.07;43.34;98420.31;1628118;85;20262;-84
2022/04/14 10:49:11;;;;;;;;;;;;;;;19.20;43.38;98424.67;1626958;87;24966;-84
2022/04/14 10:51:39;;;;;;;;;;;;;;;19.34;43.24;98429.34;1627637;87;22141;-83
2022/04/14 10:54:11;;;;;;;;;;;;;;;19.46;43.08;98428.57;1629478;87;26254;-84
2022/04/14 10:56:41;;;;;;;;;;;;;;;19.47;42.87;98424.44;1624120;87;24427;-86
2022/04/14 10:59:12;;;;;;;;;;;;;;;19.56;42.65;98422.61;1623204;87;20335;-86
2022/04/14 11:01:52;;;;;;;;;;;;;;;19.59;42.26;98425.76;1621712;87;25618;-83
2022/04/14 11:04:27;;;;;;;;;;;;;;;19.60;41.99;98422.11;1624929;87;22671;-83
2022/04/14 11:06:51;;;;;;;;;;;;;;;19.56;41.81;98419.47;1598455;87;26073;-83
2022/04/14 11:09:36;;;;;;;;;;;;;;;19.60;41.75;98423.44;1598848;89;24556;-83
2022/04/14 11:12:02;;;;;;;;;;;;;;;19.65;41.63;98424.27;1608608;88;20296;-84
2022/04/14 11:14:28;;;;;;;;;;;;;;;19.69;41.51;98419.48;1574846;90;25010;-83
2022/04/14 11:16:54;;;;;;;;;;;;;;;19.66;41.26;98417.14;1599150;88;20247;-83
2022/04/14 11:19:23;;;;;;;;;;;;;;;19.60;41.03;98418.13;1599653;89;21042;-83
2022/04/14 11:22:08;;;;;;;;;;;;;;;19.68;40.98;98415.16;1600157;89;24458;-83
2022/04/14 11:24:40;;;;;;;;;;;;;;;19.70;40.83;98410.00;1598051;89;20231;-83
2022/04/14 11:27:11;;;;;;;;;;;;;;;19.73;40.64;98412.34;1600479;89;24982;-83
2022/04/14 11:29:38;;;;;;;;;;;;;;;19.80;40.47;98408.01;1598954;88;22710;-83
2022/04/14 11:32:04;;;;;;;;;;;;;;;20.00;40.48;98409.84;1597182;89;26646;-83
2022/04/14 11:34:31;;;;;;;;;;;;;;;20.16;40.53;98405.84;1600662;89;25106;-82
2022/04/14 11:36:57;;;;;;;;;;;;;;;20.25;40.40;98398.19;1599431;89;20228;-81
2022/04/14 11:39:25;;;;;;;;;;;;;;;20.33;40.26;98394.23;1600600;89;24941;-83
2022/04/14 11:42:11;;;;;;;;;;;;;;;20.37;40.17;98396.87;1600533;88;21855;-86
2022/04/14 11:44:37;;;;;;;;;;;;;;;20.52;40.25;98390.34;1599869;88;26106;-84
2022/04/14 11:47:05;;;;;;;;;;;;;;;20.68;39.91;98387.63;1598962;89;24473;-84
2022/04/14 11:49:34;;;;;;;;;;;;;;;20.74;39.69;98384.28;1598558;89;20409;-84
2022/04/14 11:52:01;;;;;;;;;;;;;;;20.82;39.53;98382.09;1599997;89;25019;-86
2022/04/14 11:54:29;;;;;;;;;;;;;;;20.96;39.44;98372.05;1598493;89;22064;-86
2022/04/14 11:56:57;;;;;;;;;;;;;;;20.98;38.85;98371.38;1598847;89;26676;-83
2022/04/14 11:59:34;;;;;;;;;;;;;;;21.05;38.80;98369.69;1597919;89;25624;-83
2022/04/14 12:02:02;;;;;;;;;;;;;;;21.13;38.62;98369.63;1599569;89;20367;-82
2022/04/14 12:04:29;;;;;;;;;;;;;;;21.20;38.50;98365.30;1597497;89;24479;-83
2022/04/14 12:06:56;;;;;;;;;;;;;;;21.26;38.12;98372.58;1641037;86;22000;-83
2022/04/14 12:09:25;;;;;;;;;;;;;;;21.29;38.14;98364.73;1643219;86;26093;-83
2022/04/14 12:11:52;;;;;;;;;;;;;;;21.29;37.68;98362.90;1624662;86;25186;-83
2022/04/14 12:14:19;;;;;;;;;;;;;;;21.33;37.39;98361.23;1616171;88;20281;-86
2022/04/14 12:16:52;;;;;;;;;;;;;;;21.34;37.11;98354.37;1647181;86;24968;-86
2022/04/14 12:19:21;;;;;;;;;;;;;;;21.39;36.96;98347.19;1643784;87;22139;-86
2022/04/14 12:22:01;;;;;;;;;;;;;;;21.44;36.77;98344.85;1644053;87;26117;-83
2022/04/14 12:24:29;;;;;;;;;;;;;;;21.51;36.86;98340.45;1648510;87;25068;-83
2022/04/14 12:26:59;;;;;;;;;;;;;;;21.59;36.78;98340.39;1646070;87;20214;-83
2022/04/14 12:29:28;;;;;;;;;;;;;;;21.62;36.37;98338.19;1647723;87;25051;-82
2022/04/14 12:31:55;;;;;;;;;;;;;;;21.64;36.32;98339.35;1648694;87;22456;-86
2022/04/14 12:34:22;;;;;;;;;;;;;;;21.66;36.31;98330.66;1648085;87;26004;-86
2022/04/14 12:36:50;;;;;;;;;;;;;;;21.68;35.91;98331.32;1644187;87;24459;-82
2022/04/14 12:39:18;;;;;;;;;;;;;;;21.73;35.95;98332.94;1646377;86;20219;-83
2022/04/14 12:41:45;;;;;;;;;;;;;;;21.78;36.00;98328.40;1645888;87;25618;-83
2022/04/14 12:44:20;;;;;;;;;;;;;;;21.81;36.03;98326.72;1644360;87;22139;-83
2022/04/14 12:46:48;;;;;;;;;;;;;;;21.83;35.82;98326.02;1649772;87;26182;-83
2022/04/14 12:49:18;;;;;;;;;;;;;;;21.86;35.50;98319.84;1645748;87;24628;-86
2022/04/14 12:51:45;;;;;;;;;;;;;;;21.91;35.42;98316.63;1647395;86;20302;-84